createdAt,value
2024-02-02T00:00:02.799Z,4.10
2024-02-02T00:05:10.353Z,4.10
2024-02-02T00:10:13.055Z,4.20
2024-02-02T00:15:16.796Z,4.20
2024-02-02T00:20:19.272Z,4.20
2024-02-02T00:25:21.805Z,4.20
2024-02-02T00:30:24.439Z,4.30
2024-02-02T00:35:27.106Z,4.30
2024-02-02T00:40:30.437Z,4.40
2024-02-02T00:45:33.000Z,4.30
2024-02-02T00:50:35.579Z,4.20
2024-02-02T00:55:38.096Z,4.60
2024-02-02T01:00:40.863Z,4.40
2024-02-02T01:05:44.048Z,4.30
2024-02-02T01:10:46.756Z,4.20
2024-02-02T01:15:49.252Z,4.10
2024-02-02T01:20:51.772Z,4.40
2024-02-02T01:25:54.811Z,4.20
2024-02-02T01:30:57.291Z,4.00
2024-02-02T01:35:59.940Z,4.00
2024-02-02T01:41:02.367Z,4.10
2024-02-02T01:46:05.515Z,4.10
2024-02-02T01:51:09.114Z,4.20
2024-02-02T01:56:11.879Z,4.10
2024-02-02T02:01:14.599Z,4.10
2024-02-02T02:06:17.303Z,4.10
2024-02-02T02:11:20.051Z,4.10
2024-02-02T02:16:22.768Z,4.00
2024-02-02T02:21:26.821Z,3.80
2024-02-02T02:26:30.353Z,3.70
2024-02-02T02:31:32.883Z,3.50
2024-02-02T02:36:35.393Z,3.50
2024-02-02T02:41:37.889Z,3.20
2024-02-02T02:46:41.049Z,3.20
2024-02-02T02:51:43.902Z,3.30
2024-02-02T02:56:46.331Z,3.30
2024-02-02T03:01:49.109Z,3.20
2024-02-02T03:06:51.752Z,3.30
2024-02-02T03:11:54.380Z,3.30
2024-02-02T03:16:56.852Z,3.30
2024-02-02T03:21:59.341Z,3.30
2024-02-02T03:27:01.817Z,3.20
2024-02-02T03:32:04.780Z,3.60
2024-02-02T03:37:07.611Z,3.30
2024-02-02T03:42:10.160Z,3.50
2024-02-02T03:47:12.622Z,3.50
2024-02-02T03:52:15.080Z,3.50
2024-02-02T03:57:18.530Z,3.50
2024-02-02T04:02:21.374Z,3.50
2024-02-02T04:07:23.831Z,3.50
2024-02-02T04:12:26.436Z,3.50
2024-02-02T04:17:29.092Z,3.50
2024-02-02T04:22:31.632Z,3.50
2024-02-02T04:27:35.795Z,3.40
2024-02-02T04:32:38.454Z,3.50
2024-02-02T04:37:41.090Z,3.20
2024-02-02T04:42:45.911Z,3.20
2024-02-02T04:47:48.471Z,3.10
2024-02-02T04:52:50.938Z,2.90
2024-02-02T04:57:53.389Z,2.90
2024-02-02T05:02:56.341Z,2.80
2024-02-02T05:07:59.173Z,2.90
2024-02-02T05:13:01.696Z,3.00
2024-02-02T05:18:05.267Z,3.00
2024-02-02T05:23:07.924Z,3.10
2024-02-02T05:28:10.505Z,3.20
2024-02-02T05:33:16.189Z,3.20
2024-02-02T05:38:18.770Z,3.30
2024-02-02T05:43:21.271Z,3.30
2024-02-02T05:48:23.845Z,3.30
2024-02-02T05:53:26.483Z,3.30
2024-02-02T05:58:29.046Z,3.40
2024-02-02T06:03:31.600Z,3.40
2024-02-02T06:08:34.201Z,3.40
2024-02-02T06:13:36.702Z,3.40
2024-02-02T06:18:39.312Z,3.40
2024-02-02T06:23:41.856Z,3.40
2024-02-02T06:28:44.448Z,3.40
2024-02-02T06:33:46.993Z,3.60
2024-02-02T06:38:49.491Z,3.50
2024-02-02T06:43:52.063Z,3.60
2024-02-02T06:48:54.749Z,3.50
2024-02-02T06:53:57.310Z,3.50
2024-02-02T06:58:59.802Z,3.70
2024-02-02T07:04:12.930Z,3.60
2024-02-02T07:09:39.944Z,3.60
2024-02-02T07:14:49.570Z,3.60
2024-02-02T07:19:54.087Z,3.60
2024-02-02T07:24:56.572Z,3.70
2024-02-02T07:29:59.069Z,3.70
2024-02-02T07:35:03.229Z,3.80
2024-02-02T07:40:32.254Z,3.90
2024-02-02T07:45:34.849Z,3.80
2024-02-02T07:50:37.441Z,4.00
2024-02-02T07:55:40.741Z,3.80
2024-02-02T08:00:43.288Z,3.80
2024-02-02T08:05:46.239Z,3.80
2024-02-02T08:10:48.830Z,4.00
2024-02-02T08:15:51.397Z,4.10
2024-02-02T08:20:53.878Z,4.30
2024-02-02T08:25:56.959Z,4.40
2024-02-02T08:30:59.584Z,4.60
2024-02-02T08:36:02.160Z,4.60
2024-02-02T08:41:05.682Z,4.70
2024-02-02T08:46:09.277Z,4.80
2024-02-02T08:51:24.863Z,4.90
2024-02-02T08:56:27.989Z,4.90
2024-02-02T09:01:45.718Z,4.80
2024-02-02T09:06:48.606Z,4.90
2024-02-02T09:11:51.865Z,5.00
2024-02-02T09:16:55.005Z,4.90
2024-02-02T09:22:04.071Z,5.00
2024-02-02T09:27:10.357Z,5.40
2024-02-02T09:32:15.781Z,5.20
2024-02-02T09:37:47.106Z,5.40
2024-02-02T09:43:03.863Z,5.30
2024-02-02T09:48:18.263Z,5.40
2024-02-02T09:53:44.242Z,5.40
2024-02-02T09:59:09.413Z,5.40
2024-02-02T10:04:27.017Z,5.40
2024-02-02T10:09:48.286Z,5.50
2024-02-02T10:15:20.667Z,5.60
2024-02-02T10:20:36.161Z,5.60
2024-02-02T10:25:59.609Z,5.60
2024-02-02T10:31:23.206Z,5.60
2024-02-02T10:37:07.304Z,5.60
2024-02-02T10:42:38.444Z,5.60
2024-02-02T10:48:01.389Z,5.60
2024-02-02T10:53:21.807Z,5.70
2024-02-02T10:58:42.833Z,5.70
2024-02-02T11:03:59.633Z,5.70
2024-02-02T11:09:41.043Z,5.70
2024-02-02T11:14:52.224Z,5.80
2024-02-02T11:20:12.791Z,5.90
2024-02-02T11:25:53.615Z,5.80
2024-02-02T11:31:37.123Z,5.90
2024-02-02T11:37:07.758Z,5.80
2024-02-02T11:42:13.194Z,5.70
2024-02-02T11:47:19.355Z,5.70
2024-02-02T11:52:33.003Z,5.80
2024-02-02T11:57:48.757Z,5.80
2024-02-02T12:02:58.364Z,5.70
2024-02-02T12:08:38.019Z,5.90
2024-02-02T12:13:44.310Z,5.80
2024-02-02T12:18:46.978Z,5.80
2024-02-02T12:23:49.705Z,5.80
2024-02-02T12:28:54.150Z,6.10
2024-02-02T12:33:56.804Z,5.90
2024-02-02T12:39:00.135Z,5.90
2024-02-02T12:44:02.853Z,5.80
2024-02-02T12:49:07.927Z,5.90
2024-02-02T12:54:11.875Z,5.70
2024-02-02T12:59:19.876Z,5.70
2024-02-02T13:04:22.893Z,5.60
2024-02-02T13:09:30.892Z,5.60
2024-02-02T13:14:37.328Z,5.50
2024-02-02T13:19:46.321Z,5.60
2024-02-02T13:24:50.752Z,5.40
2024-02-02T13:29:58.388Z,5.40
2024-02-02T13:35:01.706Z,5.50
2024-02-02T13:40:10.805Z,5.40
2024-02-02T13:45:17.795Z,5.20
2024-02-02T13:50:30.906Z,5.20
2024-02-02T13:55:34.989Z,5.10
2024-02-02T14:00:38.228Z,5.10
2024-02-02T14:05:41.653Z,5.10
2024-02-02T14:10:49.355Z,5.00
2024-02-02T14:15:56.455Z,5.00
2024-02-02T14:21:10.364Z,5.00
2024-02-02T14:26:15.760Z,5.00
2024-02-02T14:31:18.268Z,5.10
2024-02-02T14:36:21.443Z,5.00
2024-02-02T14:41:23.942Z,5.10
2024-02-02T14:46:26.449Z,5.20
2024-02-02T14:51:29.578Z,5.10
2024-02-02T14:56:32.447Z,5.20
2024-02-02T15:01:37.953Z,5.10
2024-02-02T15:06:40.749Z,5.10
2024-02-02T15:11:44.493Z,5.10
2024-02-02T15:16:47.247Z,5.10
2024-02-02T15:21:50.846Z,5.30
2024-02-02T15:26:55.900Z,5.10
2024-02-02T15:31:58.601Z,5.10
2024-02-02T15:37:01.237Z,5.10
2024-02-02T15:42:03.952Z,5.10
2024-02-02T15:47:09.899Z,5.10
2024-02-02T15:52:12.815Z,5.10
2024-02-02T15:57:18.527Z,5.10
2024-02-02T16:02:21.600Z,5.10
2024-02-02T16:07:25.197Z,5.10
2024-02-02T16:12:27.747Z,5.20
2024-02-02T16:17:30.259Z,5.10
2024-02-02T16:22:32.939Z,5.20
2024-02-02T16:27:38.785Z,5.10
2024-02-02T16:32:44.118Z,5.40
2024-02-02T16:37:46.692Z,5.20
2024-02-02T16:42:49.255Z,5.40
2024-02-02T16:47:54.274Z,5.30
2024-02-02T16:52:56.796Z,5.30
2024-02-02T16:57:59.329Z,5.40
2024-02-02T17:03:02.354Z,5.60
2024-02-02T17:08:05.566Z,5.50
2024-02-02T17:13:08.066Z,5.50
2024-02-02T17:18:10.832Z,5.50
2024-02-02T17:23:13.454Z,5.70
2024-02-02T17:28:16.027Z,5.50
2024-02-02T17:33:18.978Z,5.50
2024-02-02T17:38:22.012Z,5.50
2024-02-02T17:43:24.534Z,5.60
2024-02-02T17:48:27.325Z,5.60
2024-02-02T17:53:30.096Z,5.60
2024-02-02T17:58:33.039Z,5.90
2024-02-02T18:03:36.276Z,5.60
2024-02-02T18:08:38.836Z,5.70
2024-02-02T18:13:41.323Z,5.70
2024-02-02T18:18:45.416Z,5.70
2024-02-02T18:23:47.944Z,5.70
2024-02-02T18:28:50.486Z,5.80
2024-02-02T18:33:53.076Z,5.80
2024-02-02T18:38:55.655Z,5.90
2024-02-02T18:43:58.842Z,5.90
2024-02-02T18:49:01.707Z,6.00
2024-02-02T18:54:04.613Z,6.00
2024-02-02T18:59:07.596Z,6.10
2024-02-02T19:04:12.423Z,6.20
2024-02-02T19:09:17.459Z,6.20
2024-02-02T19:14:21.643Z,6.30
2024-02-02T19:19:24.341Z,6.40
2024-02-02T19:24:26.935Z,6.70
2024-02-02T19:29:29.442Z,6.50
2024-02-02T19:34:32.257Z,6.50
2024-02-02T19:39:34.906Z,6.70
2024-02-02T19:44:37.420Z,6.70
2024-02-02T19:49:40.065Z,6.40
2024-02-02T19:54:43.132Z,6.40
2024-02-02T19:59:45.698Z,6.50
2024-02-02T20:04:48.268Z,6.50
2024-02-02T20:09:51.029Z,6.40
2024-02-02T20:14:53.710Z,6.40
2024-02-02T20:19:56.391Z,6.40
2024-02-02T20:24:58.958Z,6.30
2024-02-02T20:30:01.492Z,6.30
2024-02-02T20:35:04.548Z,6.40
2024-02-02T20:40:08.204Z,6.20
2024-02-02T20:45:10.877Z,6.20
2024-02-02T20:50:13.460Z,6.10
2024-02-02T20:55:16.198Z,6.10
2024-02-02T21:00:19.106Z,6.00
2024-02-02T21:05:22.245Z,5.90
2024-02-02T21:10:24.972Z,5.90
2024-02-02T21:15:33.313Z,5.90
2024-02-02T21:20:44.168Z,6.00
2024-02-02T21:25:47.609Z,5.90
2024-02-02T21:30:58.415Z,5.90
2024-02-02T21:36:05.455Z,6.00
2024-02-02T21:41:08.169Z,6.00
2024-02-02T21:46:19.726Z,6.00
2024-02-02T21:51:22.295Z,6.10
2024-02-02T21:56:24.909Z,6.00
2024-02-02T22:01:41.273Z,6.30
2024-02-02T22:06:44.256Z,6.10
2024-02-02T22:11:46.833Z,6.10
2024-02-02T22:16:49.429Z,6.20
2024-02-02T22:21:51.983Z,6.20
2024-02-02T22:26:54.445Z,6.20
2024-02-02T22:31:57.324Z,6.20
2024-02-02T22:36:59.868Z,6.20
2024-02-02T22:42:02.337Z,6.30
2024-02-02T22:47:05.176Z,6.30
2024-02-02T22:52:08.346Z,6.40
2024-02-02T22:57:10.839Z,6.40
2024-02-02T23:02:13.397Z,6.60
2024-02-02T23:07:16.333Z,6.60
2024-02-02T23:12:19.985Z,6.60
2024-02-02T23:17:22.571Z,6.60
2024-02-02T23:22:25.072Z,6.70
2024-02-02T23:27:27.739Z,6.70
2024-02-02T23:32:30.261Z,6.70
2024-02-02T23:37:32.747Z,6.70
2024-02-02T23:42:35.299Z,6.70
2024-02-02T23:47:38.114Z,6.70
2024-02-02T23:52:40.895Z,6.70
2024-02-02T23:57:43.501Z,6.80
